Time;durP1;ratioP1;P1;durP2;ratioP2;P2;SDS_P1;SDS_P2;PMS_P1;PMS_P2;Temp;Humidity;BMP_temperature;BMP_pressure;BME280_temperature;BME280_humidity;BME280_pressure;Samples;Min_cycle;Max_cycle;Signal;HPM_P1;HPM_P2
2022/11/10 00:02:21;;;;;;;15.00;10.00;;;21.20;66.80;;;;;;214900;1283;24198;-57
2022/11/10 00:07:44;;;;;;;14.40;9.50;;;21.20;66.30;;;;;;214934;1272;23899;-57
2022/11/10 00:13:07;;;;;;;13.50;9.40;;;21.10;66.00;;;;;;214827;1276;24217;-57
2022/11/10 00:18:30;;;;;;;13.50;9.50;;;21.10;65.90;;;;;;214905;1286;25302;-58
2022/11/10 00:23:52;;;;;;;13.30;8.90;;;21.10;65.90;;;;;;214981;1282;25362;-58
2022/11/10 00:29:15;;;;;;;12.10;9.70;;;21.00;65.90;;;;;;214950;1286;24164;-57
2022/11/10 00:34:37;;;;;;;13.50;9.50;;;21.00;65.80;;;;;;214882;1286;26492;-56
2022/11/10 00:39:59;;;;;;;14.50;11.00;;;21.10;65.80;;;;;;214782;1285;22608;-58
2022/11/10 00:45:22;;;;;;;13.70;10.40;;;21.10;65.70;;;;;;214911;1286;22457;-56
2022/11/10 00:50:44;;;;;;;12.70;9.40;;;21.10;65.70;;;;;;214948;1300;25262;-56
2022/11/10 00:56:06;;;;;;;11.80;9.20;;;21.10;66.20;;;;;;214943;1272;25345;-55
2022/11/10 01:01:29;;;;;;;14.20;9.90;;;21.00;65.50;;;;;;214953;1279;23911;-55
2022/11/10 01:06:51;;;;;;;12.30;9.70;;;21.10;65.60;;;;;;214862;1285;24253;-56
2022/11/10 01:12:14;;;;;;;12.80;9.30;;;21.00;65.50;;;;;;214929;1279;25298;-57
2022/11/10 01:17:37;;;;;;;12.30;9.20;;;21.00;65.60;;;;;;214832;1279;25311;-55
2022/11/10 01:22:59;;;;;;;13.10;9.60;;;21.00;65.70;;;;;;214901;1269;23895;-55
2022/11/10 01:28:22;;;;;;;11.00;8.50;;;21.00;65.60;;;;;;215011;1279;25237;-56
2022/11/10 01:33:44;;;;;;;12.30;8.80;;;21.00;65.70;;;;;;214912;1278;22488;-56
2022/11/10 01:39:07;;;;;;;16.90;9.70;;;20.90;65.90;;;;;;215029;1280;25330;-57
2022/11/10 01:44:30;;;;;;;12.50;9.00;;;20.90;65.70;;;;;;214876;1284;24043;-56
2022/11/10 01:49:53;;;;;;;12.90;8.80;;;20.90;65.80;;;;;;215055;1280;24218;-56
2022/11/10 01:55:16;;;;;;;11.30;8.80;;;20.90;65.80;;;;;;214862;1278;25353;-56
2022/11/10 02:00:39;;;;;;;11.40;8.70;;;20.90;65.90;;;;;;215022;1279;22466;-55
2022/11/10 02:06:03;;;;;;;11.10;8.70;;;20.80;65.80;;;;;;215077;1272;25521;-57
2022/11/10 02:11:27;;;;;;;14.10;9.10;;;20.90;66.10;;;;;;214860;1275;22580;-57
2022/11/10 02:16:50;;;;;;;11.30;8.30;;;21.20;65.70;;;;;;214967;1283;25288;-57
2022/11/10 02:22:12;;;;;;;10.80;8.20;;;21.50;64.70;;;;;;215054;1280;25609;-57
2022/11/10 02:27:35;;;;;;;11.50;8.40;;;21.70;63.90;;;;;;214895;1300;25460;-56
2022/11/10 02:32:57;;;;;;;9.90;7.60;;;21.80;63.50;;;;;;214945;1277;25261;-57
2022/11/10 02:38:20;;;;;;;9.80;7.90;;;22.00;63.40;;;;;;214927;1275;25306;-56
2022/11/10 02:43:42;;;;;;;10.60;7.60;;;22.00;62.90;;;;;;215006;1280;26456;-57
2022/11/10 02:49:06;;;;;;;10.10;7.40;;;22.20;62.90;;;;;;214927;1279;25365;-58
2022/11/10 02:54:29;;;;;;;9.80;7.60;;;22.20;62.50;;;;;;214955;1291;25298;-56
2022/11/10 02:59:51;;;;;;;10.60;7.70;;;22.20;62.40;;;;;;214808;1300;25380;-56
2022/11/10 03:05:14;;;;;;;11.20;7.60;;;22.30;62.40;;;;;;214905;1283;24623;-56
2022/11/10 03:10:37;;;;;;;9.40;7.40;;;22.40;62.00;;;;;;214931;1280;25315;-57
2022/11/10 03:15:59;;;;;;;10.40;7.70;;;22.40;61.90;;;;;;214960;1275;24176;-57
2022/11/10 03:21:21;;;;;;;9.30;7.40;;;22.50;61.90;;;;;;214915;1278;23092;-56
2022/11/10 03:26:44;;;;;;;9.70;7.00;;;22.60;61.60;;;;;;214934;1286;25402;-56
2022/11/10 03:32:07;;;;;;;8.80;7.00;;;22.60;61.50;;;;;;214991;1275;25230;-56
2022/11/10 03:37:29;;;;;;;8.90;7.10;;;22.70;61.40;;;;;;214947;1280;22468;-56
2022/11/10 03:42:51;;;;;;;8.40;6.60;;;22.70;61.70;;;;;;214897;1291;25308;-57
2022/11/10 03:48:13;;;;;;;8.80;7.10;;;22.70;61.30;;;;;;214961;1280;23883;-57
2022/11/10 03:53:36;;;;;;;8.90;6.90;;;22.60;61.40;;;;;;214896;1283;25423;-57
2022/11/10 03:58:58;;;;;;;8.40;6.70;;;22.60;61.60;;;;;;214946;1276;22464;-57
2022/11/10 04:10:02;;;;;;;9.40;6.70;;;22.50;61.90;;;;;;214920;1285;22744;-57
2022/11/10 04:15:43;;;;;;;9.00;6.40;;;22.40;62.00;;;;;;214972;1280;26488;-58
2022/11/10 04:21:05;;;;;;;9.10;6.30;;;22.30;62.30;;;;;;215017;1272;26525;-55
2022/11/10 04:26:28;;;;;;;9.30;7.30;;;22.20;62.40;;;;;;214825;1279;27723;-56
2022/11/10 04:31:50;;;;;;;9.00;6.90;;;22.20;63.20;;;;;;214964;1284;25420;-55
2022/11/10 04:37:13;;;;;;;8.10;6.40;;;22.10;62.90;;;;;;214917;1280;22676;-55
2022/11/10 04:42:38;;;;;;;8.20;6.70;;;22.10;63.20;;;;;;214874;1280;25404;-56
2022/11/10 04:48:01;;;;;;;7.80;5.50;;;22.00;63.40;;;;;;214753;1278;23888;-56
2022/11/10 04:53:25;;;;;;;8.40;6.50;;;22.00;63.50;;;;;;215008;1294;24192;-57
2022/11/10 04:58:49;;;;;;;8.70;6.60;;;21.90;63.60;;;;;;214989;1276;26601;-56
2022/11/10 05:04:12;;;;;;;7.80;6.00;;;21.80;63.80;;;;;;214942;1286;23893;-57
2022/11/10 05:09:34;;;;;;;9.70;7.40;;;21.80;63.70;;;;;;215018;1300;24382;-55
2022/11/10 05:14:56;;;;;;;8.40;6.50;;;21.70;63.90;;;;;;214859;1285;22468;-57
2022/11/10 05:20:21;;;;;;;8.10;6.40;;;21.70;63.80;;;;;;214948;1280;24217;-57
2022/11/10 05:25:43;;;;;;;8.10;6.60;;;21.70;64.00;;;;;;214956;1286;23847;-58
2022/11/10 05:31:07;;;;;;;7.90;6.30;;;21.70;63.80;;;;;;214909;1272;25286;-56
2022/11/10 05:36:29;;;;;;;8.20;6.80;;;21.70;64.00;;;;;;214929;1280;22460;-57
2022/11/10 05:41:51;;;;;;;8.70;6.60;;;21.60;64.60;;;;;;214978;1295;23886;-58
2022/11/10 05:47:13;;;;;;;8.00;6.10;;;21.60;64.00;;;;;;214895;1275;23878;-57
2022/11/10 05:52:46;;;;;;;8.50;6.60;;;21.60;64.10;;;;;;214952;1283;25238;-57
2022/11/10 05:58:11;;;;;;;8.00;6.30;;;21.50;64.20;;;;;;214964;1275;24277;-56
2022/11/10 06:03:39;;;;;;;8.70;6.60;;;21.50;64.20;;;;;;214966;1286;24256;-57
2022/11/10 06:09:03;;;;;;;7.30;5.90;;;21.50;64.20;;;;;;214700;1291;219280;-57
2022/11/10 06:14:27;;;;;;;6.90;5.80;;;21.40;64.40;;;;;;214929;1275;23846;-56
2022/11/10 06:19:56;;;;;;;8.20;5.90;;;21.40;64.10;;;;;;214828;1288;25329;-56
2022/11/10 06:25:23;;;;;;;7.50;5.90;;;21.40;64.20;;;;;;214855;1286;24186;-56
2022/11/10 06:30:50;;;;;;;7.60;5.90;;;21.40;64.30;;;;;;215000;1288;24290;-57
2022/11/10 06:36:12;;;;;;;8.10;6.60;;;21.30;64.30;;;;;;214940;1283;22471;-56
2022/11/10 06:41:35;;;;;;;6.40;5.60;;;21.30;64.40;;;;;;214972;1282;22470;-57
2022/11/10 06:46:57;;;;;;;7.80;6.20;;;21.30;64.40;;;;;;214910;1283;25286;-57
2022/11/10 06:52:20;;;;;;;7.40;5.60;;;21.30;64.60;;;;;;214932;1275;25216;-57
2022/11/10 06:57:43;;;;;;;7.40;5.70;;;21.30;64.60;;;;;;214950;1280;25370;-57
2022/11/10 07:03:08;;;;;;;10.90;5.40;;;21.20;64.60;;;;;;214794;1283;24717;-55
2022/11/10 07:08:32;;;;;;;10.30;5.80;;;21.20;65.00;;;;;;214868;1301;26571;-55
2022/11/10 07:13:54;;;;;;;8.00;5.80;;;21.20;65.00;;;;;;215022;1295;22510;-57
2022/11/10 07:19:36;;;;;;;8.40;5.70;;;21.20;65.10;;;;;;214722;1276;22501;-57
2022/11/10 07:25:04;;;;;;;8.10;6.10;;;21.20;65.10;;;;;;214714;1292;22573;-57
2022/11/10 07:30:29;;;;;;;12.30;5.70;;;21.20;65.30;;;;;;214998;1275;25251;-58
2022/11/10 07:35:54;;;;;;;12.40;6.20;;;21.20;65.00;;;;;;214914;1280;22467;-56
2022/11/10 07:41:16;;;;;;;8.00;5.70;;;21.10;64.90;;;;;;214892;1280;25550;-56
2022/11/10 07:46:39;;;;;;;8.70;5.60;;;21.10;64.90;;;;;;214961;1280;23878;-57
2022/11/10 07:52:01;;;;;;;8.80;5.60;;;21.20;64.80;;;;;;214867;1280;25452;-56
2022/11/10 07:57:24;;;;;;;10.00;5.70;;;21.10;65.10;;;;;;215006;1285;25548;-56
2022/11/10 08:02:47;;;;;;;8.80;6.40;;;21.10;65.00;;;;;;214782;1293;25644;-55
2022/11/10 08:08:10;;;;;;;7.90;6.30;;;21.00;64.80;;;;;;214832;1301;25345;-55
2022/11/10 08:13:36;;;;;;;10.30;6.10;;;21.10;64.80;;;;;;214991;1276;22464;-56
2022/11/10 08:18:58;;;;;;;6.50;5.20;;;21.00;65.10;;;;;;215003;1288;25553;-55
2022/11/10 08:24:22;;;;;;;7.80;5.20;;;20.90;64.60;;;;;;214833;1282;24227;-56
2022/11/10 08:29:44;;;;;;;7.10;5.30;;;20.90;64.60;;;;;;214775;1275;28616;-55
2022/11/10 08:35:08;;;;;;;8.00;4.90;;;20.90;64.40;;;;;;215024;1275;24187;-59
2022/11/10 08:40:30;;;;;;;8.20;4.80;;;21.00;64.20;;;;;;214781;1280;22478;-56
2022/11/10 08:45:57;;;;;;;7.50;5.00;;;21.00;63.90;;;;;;215060;1285;24250;-57
2022/11/10 08:51:21;;;;;;;6.10;4.30;;;21.00;64.00;;;;;;214798;1280;25645;-56
2022/11/10 08:56:43;;;;;;;7.80;4.70;;;20.90;63.90;;;;;;215083;1286;25382;-57
2022/11/10 09:02:09;;;;;;;6.30;4.40;;;21.00;63.80;;;;;;214805;1280;26655;-55
2022/11/10 09:07:33;;;;;;;5.80;4.10;;;21.00;63.60;;;;;;215040;1280;25332;-56
2022/11/10 09:13:00;;;;;;;6.50;4.00;;;21.00;63.30;;;;;;215035;1275;24383;-58
2022/11/10 09:18:22;;;;;;;6.70;3.70;;;21.10;63.20;;;;;;214829;1280;25342;-56
2022/11/10 09:23:45;;;;;;;6.20;4.10;;;21.20;63.10;;;;;;214942;1280;25294;-57
2022/11/10 09:29:07;;;;;;;6.10;3.80;;;21.20;62.80;;;;;;214781;1278;26677;-58
2022/11/10 09:34:29;;;;;;;5.40;3.50;;;21.30;62.60;;;;;;214862;1280;23847;-61
2022/11/10 09:39:53;;;;;;;5.80;3.50;;;21.30;62.40;;;;;;214890;1280;24177;-58
2022/11/10 09:45:35;;;;;;;4.50;3.10;;;21.40;62.40;;;;;;214823;1287;22459;-58
2022/11/10 09:51:07;;;;;;;5.30;3.30;;;21.40;62.30;;;;;;214848;1289;24790;-59
2022/11/10 09:56:33;;;;;;;7.00;2.90;;;21.50;62.70;;;;;;214716;1272;25426;-58
2022/11/10 10:02:18;;;;;;;8.60;2.80;;;21.50;61.90;;;;;;214983;1285;22472;-58
2022/11/10 10:07:59;;;;;;;5.90;3.40;;;21.70;62.80;;;;;;215009;1300;25484;-59
2022/11/10 10:13:48;;;;;;;4.40;2.70;;;21.70;62.60;;;;;;214914;1280;24126;-59
2022/11/10 10:19:47;;;;;;;4.40;2.70;;;21.80;62.00;;;;;;214919;1291;25689;-59
2022/11/10 10:25:19;;;;;;;6.70;3.00;;;21.80;61.70;;;;;;214892;1288;22467;-58
2022/11/10 10:30:42;;;;;;;6.50;2.90;;;21.80;62.20;;;;;;214913;1299;25272;-58
2022/11/10 10:36:09;;;;;;;10.10;3.40;;;21.80;61.80;;;;;;214946;1286;25299;-57
2022/11/10 10:41:33;;;;;;;4.90;3.20;;;21.90;63.10;;;;;;214875;1279;24205;-54
2022/11/10 10:47:01;;;;;;;6.70;3.30;;;21.90;62.50;;;;;;214941;1295;24241;-53
2022/11/10 10:52:25;;;;;;;5.20;2.80;;;21.90;63.30;;;;;;214857;1278;22463;-53
2022/11/10 10:57:58;;;;;;;6.30;3.10;;;21.90;63.90;;;;;;215066;1280;22602;-55
2022/11/10 11:03:28;;;;;;;4.50;2.50;;;21.80;64.60;;;;;;214944;1272;22475;-53
2022/11/10 11:09:00;;;;;;;4.00;2.50;;;21.80;64.20;;;;;;214960;1282;25209;-54
2022/11/10 11:14:26;;;;;;;4.60;3.10;;;21.80;65.50;;;;;;214882;1280;22557;-55
2022/11/10 11:19:53;;;;;;;5.60;3.10;;;21.80;64.00;;;;;;214917;1275;25366;-55
2022/11/10 11:25:38;;;;;;;5.00;2.70;;;21.70;63.20;;;;;;214900;1279;24061;-54
2022/11/10 11:31:09;;;;;;;4.40;2.60;;;21.70;62.80;;;;;;214744;1286;22578;-54
2022/11/10 11:36:45;;;;;;;8.40;2.90;;;21.70;62.90;;;;;;214896;1285;25325;-52
2022/11/10 11:42:48;;;;;;;5.30;2.70;;;21.70;62.60;;;;;;214745;1292;22459;-53
2022/11/10 11:48:20;;;;;;;3.90;2.70;;;21.70;62.30;;;;;;214956;1294;23852;-56
2022/11/10 11:54:18;;;;;;;7.30;2.90;;;21.70;62.20;;;;;;214948;1286;25462;-53
2022/11/10 11:59:58;;;;;;;6.80;2.50;;;21.70;62.00;;;;;;214887;1286;25290;-53
2022/11/10 12:05:27;;;;;;;3.70;2.20;;;21.70;61.90;;;;;;214941;1300;25372;-52
2022/11/10 12:11:35;;;;;;;4.30;2.80;;;21.70;61.90;;;;;;214920;1286;25498;-53
2022/11/10 12:17:21;;;;;;;5.60;2.80;;;21.70;61.90;;;;;;214949;1280;26085;-54
2022/11/10 12:23:22;;;;;;;4.00;2.30;;;21.70;61.80;;;;;;214918;1292;22469;-53
2022/11/10 12:28:54;;;;;;;4.90;2.20;;;21.70;61.70;;;;;;214901;1278;25216;-54
2022/11/10 12:34:33;;;;;;;14.60;2.30;;;21.70;61.70;;;;;;214964;1272;25286;-53
2022/11/10 12:40:10;;;;;;;3.50;2.00;;;21.80;61.40;;;;;;214996;1279;24196;-54
2022/11/10 12:45:39;;;;;;;5.20;2.40;;;21.80;61.50;;;;;;215017;1295;22883;-54
2022/11/10 12:51:18;;;;;;;5.00;2.90;;;21.70;61.10;;;;;;214889;1278;22460;-55
2022/11/10 12:56:54;;;;;;;5.20;2.30;;;21.80;61.20;;;;;;214933;1278;26988;-55
2022/11/10 13:02:26;;;;;;;4.60;1.90;;;21.80;61.50;;;;;;214950;1284;24280;-55
2022/11/10 13:07:50;;;;;;;3.10;2.20;;;21.80;61.30;;;;;;214886;1278;26180;-57
2022/11/10 13:13:14;;;;;;;4.80;2.20;;;21.70;61.40;;;;;;214886;1278;25210;-55
2022/11/10 13:18:36;;;;;;;4.70;2.40;;;21.70;61.30;;;;;;214988;1278;23880;-55
2022/11/10 13:24:01;;;;;;;3.70;2.10;;;21.70;61.20;;;;;;215033;1272;25356;-55
2022/11/10 13:29:42;;;;;;;3.00;1.60;;;21.70;61.20;;;;;;214919;1285;22465;-53
2022/11/10 13:35:29;;;;;;;3.00;1.70;;;21.70;61.30;;;;;;214892;1286;22473;-55
2022/11/10 13:40:52;;;;;;;3.50;2.00;;;21.70;61.10;;;;;;214883;1279;24007;-55
2022/11/10 13:46:15;;;;;;;3.30;1.90;;;21.70;61.10;;;;;;214909;1286;25376;-55
2022/11/10 13:52:05;;;;;;;3.00;2.10;;;21.60;60.90;;;;;;214885;1275;23753;-54
2022/11/10 13:58:11;;;;;;;4.60;2.10;;;21.60;61.00;;;;;;214918;1278;25347;-55
2022/11/10 14:03:45;;;;;;;3.00;1.70;;;21.60;61.10;;;;;;214047;1294;23897;-55
2022/11/10 14:09:27;;;;;;;3.20;2.10;;;21.60;60.90;;;;;;214767;1279;25296;-55
2022/11/10 14:14:59;;;;;;;3.30;2.00;;;21.60;60.90;;;;;;214745;1279;22535;-55
2022/11/10 14:20:42;;;;;;;3.80;2.00;;;21.60;60.50;;;;;;214738;1281;23854;-54
2022/11/10 14:26:34;;;;;;;3.70;1.80;;;21.50;60.70;;;;;;214861;1282;23845;-55
2022/11/10 14:32:02;;;;;;;3.10;1.70;;;21.50;60.60;;;;;;214833;1271;25039;-55
2022/11/10 14:37:27;;;;;;;4.00;1.90;;;21.40;60.60;;;;;;214716;1278;22464;-58
2022/11/10 14:42:49;;;;;;;3.70;1.80;;;21.40;60.90;;;;;;214894;1272;26509;-57
2022/11/10 14:48:21;;;;;;;5.00;1.80;;;21.40;60.40;;;;;;214834;1279;22478;-56
2022/11/10 14:53:54;;;;;;;2.90;1.50;;;21.40;60.50;;;;;;214872;1279;24294;-57
2022/11/10 14:59:29;;;;;;;5.30;1.80;;;21.40;60.40;;;;;;214722;1271;26669;-57
2022/11/10 15:05:04;;;;;;;4.20;1.50;;;21.20;60.50;;;;;;214894;1279;22557;-56
2022/11/10 15:10:40;;;;;;;3.30;1.70;;;21.20;60.60;;;;;;214876;1272;26647;-57
2022/11/10 15:16:27;;;;;;;3.60;1.50;;;21.20;60.60;;;;;;215010;1278;23907;-58
2022/11/10 15:21:59;;;;;;;2.60;1.40;;;21.20;60.60;;;;;;214879;1272;23871;-55
2022/11/10 15:27:37;;;;;;;3.40;1.70;;;21.10;60.50;;;;;;214672;1276;22518;-57
2022/11/10 15:33:25;;;;;;;3.60;1.60;;;21.10;60.30;;;;;;214775;1278;23936;-57
2022/11/10 15:39:09;;;;;;;3.80;1.90;;;21.10;60.30;;;;;;214629;1279;25697;-57
2022/11/10 15:44:32;;;;;;;4.90;2.00;;;21.10;60.30;;;;;;214817;1279;25433;-61
2022/11/10 15:49:57;;;;;;;4.80;1.90;;;21.10;60.40;;;;;;214734;1278;23860;-56
2022/11/10 15:55:23;;;;;;;4.90;1.70;;;21.10;60.80;;;;;;214843;1278;23884;-60
2022/11/10 16:00:46;;;;;;;3.70;1.90;;;21.10;60.90;;;;;;214694;1271;23881;-56
2022/11/10 16:06:16;;;;;;;4.80;2.00;;;21.10;61.00;;;;;;214792;1280;25619;-56
2022/11/10 16:11:44;;;;;;;5.60;2.00;;;21.00;60.90;;;;;;214842;1272;25471;-56
2022/11/10 16:17:11;;;;;;;5.00;1.60;;;21.10;61.00;;;;;;214874;1299;25270;-56
2022/11/10 16:22:34;;;;;;;6.70;1.80;;;21.00;60.90;;;;;;215031;1286;25458;-57
2022/11/10 16:27:57;;;;;;;3.10;1.90;;;21.10;61.10;;;;;;214865;1275;25026;-57
2022/11/10 16:33:26;;;;;;;3.70;2.30;;;21.00;61.00;;;;;;214952;1286;25467;-56
2022/11/10 16:38:55;;;;;;;6.40;2.00;;;21.00;61.10;;;;;;215103;1286;22813;-57
2022/11/10 16:44:24;;;;;;;6.90;2.10;;;21.10;62.30;;;;;;214936;1294;23836;-58
2022/11/10 16:49:53;;;;;;;7.80;2.30;;;21.10;63.10;;;;;;214928;1300;25505;-56
2022/11/10 16:55:22;;;;;;;8.00;2.50;;;21.10;63.60;;;;;;214762;1289;22542;-57
2022/11/10 17:00:56;;;;;;;8.20;3.30;;;21.00;63.60;;;;;;214984;1291;24219;-58
2022/11/10 17:06:28;;;;;;;10.70;2.70;;;21.10;66.90;;;;;;214944;1279;25454;-56
2022/11/10 17:11:56;;;;;;;8.30;2.70;;;21.10;66.50;;;;;;214824;1279;24267;-56
2022/11/10 17:17:23;;;;;;;11.70;4.10;;;21.10;67.80;;;;;;214870;1279;23986;-55
2022/11/10 17:22:46;;;;;;;11.10;4.10;;;21.10;69.80;;;;;;214990;1273;23855;-58
2022/11/10 17:28:17;;;;;;;12.50;3.80;;;21.30;70.00;;;;;;214926;1280;24288;-54
2022/11/10 17:33:40;;;;;;;19.60;4.10;;;21.30;70.10;;;;;;214920;1279;22477;-56
2022/11/10 17:39:08;;;;;;;11.00;3.80;;;21.30;69.10;;;;;;214839;1278;23879;-56
2022/11/10 17:44:30;;;;;;;12.90;4.60;;;21.30;69.60;;;;;;214919;1280;25309;-56
2022/11/10 17:49:56;;;;;;;13.70;4.40;;;21.30;70.60;;;;;;214777;1272;22959;-57
2022/11/10 17:55:25;;;;;;;13.20;3.80;;;21.20;70.60;;;;;;214959;1288;24316;-54
2022/11/10 18:00:59;;;;;;;9.10;3.20;;;21.30;70.50;;;;;;214979;1288;23904;-54
2022/11/10 18:06:25;;;;;;;6.60;3.40;;;21.30;70.00;;;;;;214927;1272;25406;-54
2022/11/10 18:11:52;;;;;;;13.40;4.10;;;21.20;69.60;;;;;;214264;1279;858320;-54
2022/11/10 18:17:16;;;;;;;11.80;3.30;;;21.20;69.50;;;;;;214849;1272;25307;-54
2022/11/10 18:22:45;;;;;;;9.10;3.30;;;21.20;69.30;;;;;;214612;1279;25870;-56
2022/11/10 18:28:12;;;;;;;8.90;3.10;;;21.20;69.20;;;;;;214748;1279;22645;-58
2022/11/10 18:33:35;;;;;;;5.40;2.40;;;21.20;68.90;;;;;;214909;1272;24314;-55
2022/11/10 18:38:58;;;;;;;10.20;3.40;;;21.20;69.40;;;;;;214694;1286;24762;-55
2022/11/10 18:44:28;;;;;;;7.40;3.00;;;21.20;68.70;;;;;;214739;1278;22594;-55
2022/11/10 18:49:55;;;;;;;23.50;3.90;;;21.20;68.60;;;;;;214839;1272;24231;-57
2022/11/10 18:55:24;;;;;;;9.80;3.00;;;21.50;69.00;;;;;;214849;1280;24205;-56
2022/11/10 19:00:49;;;;;;;9.00;2.90;;;21.40;67.80;;;;;;214916;1280;23567;-56
2022/11/10 19:06:17;;;;;;;15.00;3.60;;;21.30;67.80;;;;;;215050;1272;25316;-56
2022/11/10 19:11:40;;;;;;;11.20;2.90;;;21.20;68.00;;;;;;214774;1279;24474;-56
2022/11/10 19:17:02;;;;;;;8.40;3.20;;;21.10;67.90;;;;;;214993;1295;22485;-58
2022/11/10 19:22:25;;;;;;;7.40;2.70;;;21.10;67.90;;;;;;214953;1275;22466;-56
2022/11/10 19:27:53;;;;;;;9.30;2.80;;;21.10;67.80;;;;;;214822;1300;25546;-57
2022/11/10 19:33:15;;;;;;;10.90;3.50;;;21.00;67.80;;;;;;214988;1286;24363;-57
2022/11/10 19:38:39;;;;;;;6.90;2.70;;;21.00;67.70;;;;;;214898;1278;24356;-56
2022/11/10 19:44:02;;;;;;;6.50;3.10;;;21.00;67.50;;;;;;214957;1280;25479;-56
2022/11/10 19:49:31;;;;;;;8.10;2.70;;;21.00;67.20;;;;;;215003;1280;22463;-56
2022/11/10 19:54:53;;;;;;;11.00;3.10;;;21.00;67.50;;;;;;214876;1280;24275;-56
2022/11/10 20:00:16;;;;;;;11.50;3.60;;;21.10;67.50;;;;;;214935;1279;26567;-57
2022/11/10 20:05:47;;;;;;;7.50;3.20;;;21.00;66.80;;;;;;214837;1278;23879;-56
2022/11/10 20:11:21;;;;;;;11.40;3.20;;;21.00;66.80;;;;;;214990;1280;22478;-58
2022/11/10 20:16:45;;;;;;;12.60;3.80;;;21.00;66.40;;;;;;214860;1276;23855;-56
2022/11/10 20:22:16;;;;;;;9.60;3.30;;;20.90;66.30;;;;;;214777;1279;24173;-56
2022/11/10 20:27:43;;;;;;;10.20;3.70;;;20.90;66.20;;;;;;215016;1295;23908;-55
2022/11/10 20:33:06;;;;;;;9.50;4.10;;;21.00;66.10;;;;;;214939;1295;22497;-55
2022/11/10 20:38:29;;;;;;;11.90;3.40;;;21.00;66.50;;;;;;214889;1275;23773;-55
2022/11/10 20:43:52;;;;;;;8.40;3.90;;;20.90;66.50;;;;;;214943;1296;23107;-55
2022/11/10 20:49:22;;;;;;;10.40;3.50;;;20.90;66.60;;;;;;214839;1276;24376;-57
2022/11/10 20:54:45;;;;;;;9.20;4.50;;;20.90;66.80;;;;;;214962;1272;26542;-56
2022/11/10 21:00:11;;;;;;;14.20;3.80;;;20.90;67.30;;;;;;214840;1300;24339;-57
2022/11/10 21:05:36;;;;;;;15.40;4.50;;;21.00;67.20;;;;;;215022;1278;24276;-54
2022/11/10 21:11:04;;;;;;;13.00;4.50;;;20.90;67.30;;;;;;214867;1280;22481;-56
2022/11/10 21:16:27;;;;;;;12.10;5.00;;;20.90;67.40;;;;;;214826;1278;22683;-55
2022/11/10 21:21:54;;;;;;;16.00;4.90;;;20.90;68.10;;;;;;214937;1280;25550;-55
2022/11/10 21:27:22;;;;;;;11.40;4.30;;;20.90;67.70;;;;;;214858;1279;25574;-55
2022/11/10 21:32:46;;;;;;;17.20;5.00;;;20.90;67.80;;;;;;214766;1275;25502;-56
2022/11/10 21:38:23;;;;;;;9.70;4.10;;;20.90;67.80;;;;;;214911;1273;26585;-55
2022/11/10 21:43:45;;;;;;;12.00;4.60;;;20.90;67.80;;;;;;214826;1280;23847;-55
2022/11/10 21:49:08;;;;;;;11.70;4.70;;;20.90;67.80;;;;;;214818;1272;26875;-56
2022/11/10 21:54:30;;;;;;;11.70;4.30;;;20.80;67.80;;;;;;214887;1275;22475;-56
2022/11/10 21:59:55;;;;;;;11.20;4.10;;;20.80;67.80;;;;;;214947;1277;26592;-55
2022/11/10 22:05:20;;;;;;;11.20;4.70;;;20.90;67.80;;;;;;214962;1279;26654;-55
2022/11/10 22:22:31;;;;;;;21.30;6.30;;;20.80;71.20;;;;;;214910;1276;23412;-55
2022/11/10 22:28:06;;;;;;;16.20;5.50;;;20.80;74.20;;;;;;214643;1276;22471;-56
2022/11/10 22:33:47;;;;;;;14.70;5.20;;;20.90;73.10;;;;;;214730;1280;23803;-59
2022/11/10 22:45:38;;;;;;;10.60;4.60;;;20.90;73.70;;;;;;214879;1276;25397;-55
2022/11/10 22:51:16;;;;;;;13.20;4.70;;;20.90;73.00;;;;;;214966;1285;26617;-55
2022/11/10 22:56:50;;;;;;;14.40;5.10;;;20.90;72.60;;;;;;215508;1280;22573;-56
2022/11/10 23:02:18;;;;;;;12.70;5.80;;;20.90;72.30;;;;;;214898;1291;22471;-55
2022/11/10 23:07:49;;;;;;;15.00;5.50;;;20.90;72.10;;;;;;214844;1280;23927;-56
2022/11/10 23:13:20;;;;;;;10.90;4.80;;;20.90;71.90;;;;;;214839;1276;23885;-57
2022/11/10 23:18:44;;;;;;;11.00;5.30;;;20.80;71.80;;;;;;215050;1286;25887;-56
2022/11/10 23:24:08;;;;;;;11.00;4.80;;;20.80;71.60;;;;;;214830;1296;22473;-55
2022/11/10 23:29:30;;;;;;;9.60;5.00;;;20.80;71.40;;;;;;215002;1272;23882;-56
2022/11/10 23:34:56;;;;;;;10.10;5.10;;;20.80;71.20;;;;;;215058;1280;24025;-55
2022/11/10 23:40:19;;;;;;;13.10;5.70;;;20.80;71.10;;;;;;215073;1299;24330;-55
2022/11/10 23:45:43;;;;;;;12.20;5.60;;;20.70;70.90;;;;;;214968;1276;23708;-55
2022/11/10 23:51:26;;;;;;;9.70;5.30;;;20.70;70.80;;;;;;215006;1280;22831;-55
2022/11/10 23:56:50;;;;;;;11.20;5.10;;;20.70;70.50;;;;;;215029;1280;25346;-55
